createdAt,value
2019-01-31T00:02:22.596Z,99394.56
2019-01-31T00:05:03.572Z,99399.05
2019-01-31T00:07:50.674Z,99400.94
2019-01-31T00:10:40.961Z,99401.30
2019-01-31T00:13:13.173Z,99406.34
2019-01-31T00:15:48.022Z,99399.06
2019-01-31T00:18:35.191Z,99404.20
2019-01-31T00:21:10.243Z,99404.33
2019-01-31T00:23:42.478Z,99404.09
2019-01-31T00:26:26.307Z,99401.76
2019-01-31T00:29:13.116Z,99407.20
2019-01-31T00:32:01.801Z,99408.80
2019-01-31T00:35:07.067Z,99407.23
2019-01-31T00:37:54.528Z,99409.35
2019-01-31T00:40:38.355Z,99411.25
2019-01-31T00:43:22.118Z,99418.56
2019-01-31T00:46:15.337Z,99411.91
2019-01-31T00:48:50.476Z,99416.63
2019-01-31T00:51:34.592Z,99416.63
2019-01-31T00:54:31.093Z,99415.41
2019-01-31T00:57:27.327Z,99422.58
2019-01-31T00:59:59.559Z,99426.83
2019-01-31T01:02:43.301Z,99424.58
2019-01-31T01:05:38.754Z,99426.88
2019-01-31T01:08:10.975Z,99431.53
2019-01-31T01:11:05.595Z,99430.56
2019-01-31T01:13:46.289Z,99426.48
2019-01-31T01:16:26.885Z,99422.92
2019-01-31T01:18:59.082Z,99435.97
2019-01-31T01:21:48.323Z,99439.25
2019-01-31T01:24:25.954Z,99443.99
2019-01-31T01:27:10.085Z,99432.46
2019-01-31T01:29:45.161Z,99437.87
2019-01-31T01:32:44.269Z,99435.75
2019-01-31T01:35:40.596Z,99439.01
2019-01-31T01:38:18.057Z,99435.75
2019-01-31T01:41:11.147Z,99438.67
2019-01-31T01:43:43.383Z,99439.90
2019-01-31T01:46:24.083Z,99445.56
2019-01-31T01:49:05.066Z,99442.48
2019-01-31T01:51:49.025Z,99448.43
2019-01-31T01:57:26.785Z,99445.19
2019-01-31T01:59:59.020Z,99447.06
2019-01-31T02:02:31.256Z,99450.55
2019-01-31T02:05:06.265Z,99449.78
2019-01-31T02:07:47.413Z,99455.30
2019-01-31T02:10:25.465Z,99452.27
2019-01-31T02:13:15.692Z,99453.35
2019-01-31T02:15:47.921Z,99451.18
2019-01-31T02:18:22.925Z,99456.59
2019-01-31T02:21:26.442Z,99445.20
2019-01-31T02:24:01.401Z,99447.12
2019-01-31T02:26:44.987Z,99447.97
2019-01-31T02:29:28.892Z,99443.21
2019-01-31T02:32:06.863Z,99442.36
2019-01-31T02:34:55.790Z,99435.91
2019-01-31T02:37:39.894Z,99437.64
2019-01-31T02:40:12.121Z,99439.86
2019-01-31T02:42:46.827Z,99439.86
2019-01-31T02:45:35.414Z,99434.30
2019-01-31T02:48:28.621Z,99434.25
2019-01-31T02:51:27.891Z,99438.77
2019-01-31T02:54:08.763Z,99438.30
2019-01-31T02:56:49.887Z,99426.95
2019-01-31T02:59:43.293Z,99434.52
2019-01-31T03:02:20.914Z,99426.98
2019-01-31T03:05:08.442Z,99426.23
2019-01-31T03:07:49.739Z,99425.48
2019-01-31T03:10:33.977Z,99420.04
2019-01-31T03:13:15.305Z,99421.60
2019-01-31T03:15:59.405Z,99417.89
2019-01-31T03:18:43.499Z,99413.89
2019-01-31T03:21:34.903Z,99416.05
2019-01-31T03:24:37.043Z,99409.84
2019-01-31T03:27:31.693Z,99412.57
2019-01-31T03:30:24.590Z,99409.59
2019-01-31T03:32:56.508Z,99413.87
2019-01-31T03:35:43.623Z,99417.25
2019-01-31T03:38:24.757Z,99414.74
2019-01-31T03:41:16.330Z,99410.46
2019-01-31T03:44:03.160Z,99411.78
2019-01-31T03:46:50.239Z,99409.88
2019-01-31T03:49:41.596Z,99416.55
2019-01-31T03:52:26.035Z,99414.34
2019-01-31T03:55:06.869Z,99413.53
2019-01-31T03:57:53.964Z,99418.84
2019-01-31T04:00:37.982Z,99425.65
2019-01-31T04:03:10.245Z,99424.25
2019-01-31T04:05:42.479Z,99432.33
2019-01-31T04:08:11.715Z,99437.13
2019-01-31T04:10:40.912Z,99434.41
2019-01-31T04:13:10.091Z,99432.62
2019-01-31T04:15:39.595Z,99428.63
2019-01-31T04:18:08.865Z,99431.26
2019-01-31T04:20:38.057Z,99434.66
2019-01-31T04:23:07.229Z,99441.80
2019-01-31T04:25:36.431Z,99440.39
2019-01-31T04:28:05.669Z,99438.14
2019-01-31T04:30:34.874Z,99440.78
2019-01-31T04:33:04.170Z,99435.13
2019-01-31T04:35:33.352Z,99442.70
2019-01-31T04:38:02.462Z,99441.50
2019-01-31T04:40:31.864Z,99439.58
2019-01-31T04:43:01.294Z,99440.53
2019-01-31T04:45:31.507Z,99442.09
2019-01-31T04:48:00.727Z,99441.20
2019-01-31T04:50:29.919Z,99440.44
2019-01-31T04:52:59.112Z,99436.48
2019-01-31T04:55:28.305Z,99438.27
2019-01-31T04:57:57.521Z,99428.63
2019-01-31T05:00:26.795Z,99432.16
2019-01-31T05:02:55.979Z,99436.02
2019-01-31T05:05:25.180Z,99428.20
2019-01-31T05:07:54.366Z,99427.77
2019-01-31T05:10:23.563Z,99438.75
2019-01-31T05:12:52.793Z,99434.41
2019-01-31T05:15:21.989Z,99433.89
2019-01-31T05:17:51.178Z,99435.42
2019-01-31T05:20:20.304Z,99432.66
2019-01-31T05:22:49.523Z,99435.13
2019-01-31T05:25:18.805Z,99438.70
2019-01-31T05:27:47.936Z,99436.83
2019-01-31T05:30:17.549Z,99441.08
2019-01-31T05:32:46.723Z,99438.36
2019-01-31T05:35:16.084Z,99440.90
2019-01-31T05:37:45.284Z,99441.41
2019-01-31T05:40:15.459Z,99448.00
2019-01-31T05:42:44.616Z,99440.48
2019-01-31T05:45:17.244Z,99436.52
2019-01-31T05:47:46.591Z,99437.33
2019-01-31T05:50:17.007Z,99433.89
2019-01-31T05:52:46.274Z,99431.16
2019-01-31T05:55:15.882Z,99433.80
2019-01-31T05:57:45.059Z,99440.18
2019-01-31T06:00:18.180Z,99437.84
2019-01-31T06:02:47.406Z,99447.58
2019-01-31T06:05:16.724Z,99443.63
2019-01-31T06:07:45.923Z,99449.92
2019-01-31T06:10:15.162Z,99451.14
2019-01-31T06:12:44.434Z,99459.73
2019-01-31T06:15:18.591Z,99455.27
2019-01-31T06:17:47.845Z,99458.84
2019-01-31T06:20:26.608Z,99453.57
2019-01-31T06:22:55.903Z,99459.53
2019-01-31T06:25:25.097Z,99456.04
2019-01-31T06:27:54.197Z,99461.13
2019-01-31T06:30:23.460Z,99457.91
2019-01-31T06:32:52.975Z,99460.92
2019-01-31T06:35:22.183Z,99452.36
2019-01-31T06:37:51.394Z,99454.11
2019-01-31T06:40:21.408Z,99457.35
2019-01-31T06:42:50.609Z,99459.60
2019-01-31T06:45:21.718Z,99463.30
2019-01-31T06:47:50.955Z,99463.94
2019-01-31T06:50:20.160Z,99464.83
2019-01-31T06:52:49.340Z,99463.72
2019-01-31T06:55:18.665Z,99461.77
2019-01-31T06:57:47.854Z,99467.23
2019-01-31T07:00:22.291Z,99469.17
2019-01-31T07:02:51.827Z,99474.74
2019-01-31T07:05:21.062Z,99474.14
2019-01-31T07:07:50.238Z,99469.10
2019-01-31T07:10:22.251Z,99477.88
2019-01-31T07:12:51.460Z,99476.45
2019-01-31T07:15:20.620Z,99486.16
2019-01-31T07:17:49.903Z,99486.72
2019-01-31T07:20:19.154Z,99484.89
2019-01-31T07:22:48.361Z,99487.62
2019-01-31T07:25:23.268Z,99488.03
2019-01-31T07:27:52.524Z,99489.13
2019-01-31T07:30:23.241Z,99483.81
2019-01-31T07:32:52.454Z,99484.76
2019-01-31T07:35:21.640Z,99482.63
2019-01-31T07:37:53.034Z,99486.40
2019-01-31T07:40:22.954Z,99488.78
2019-01-31T07:42:52.129Z,99490.81
2019-01-31T07:45:26.496Z,99495.94
2019-01-31T07:47:55.721Z,99496.12
2019-01-31T07:50:25.152Z,99502.42
2019-01-31T07:52:54.689Z,99504.16
2019-01-31T07:55:23.874Z,99503.34
2019-01-31T07:57:53.044Z,99505.02
2019-01-31T08:00:24.757Z,99503.77
2019-01-31T08:02:54.093Z,99511.56
2019-01-31T08:05:24.726Z,99505.48
2019-01-31T08:07:56.341Z,99510.06
2019-01-31T08:10:36.949Z,99512.53
2019-01-31T08:13:06.299Z,99512.71
2019-01-31T08:15:35.568Z,99507.77
2019-01-31T08:18:05.767Z,99513.58
2019-01-31T08:20:35.080Z,99512.34
2019-01-31T08:23:04.653Z,99513.19
2019-01-31T08:25:34.039Z,99513.78
2019-01-31T08:28:03.546Z,99513.02
2019-01-31T08:30:41.526Z,99514.66
2019-01-31T08:33:10.840Z,99512.76
2019-01-31T08:35:40.016Z,99515.71
2019-01-31T08:38:09.296Z,99517.99
2019-01-31T08:40:38.477Z,99518.97
2019-01-31T08:43:07.648Z,99519.89
2019-01-31T08:45:36.865Z,99515.19
2019-01-31T08:48:06.220Z,99516.56
2019-01-31T08:50:35.867Z,99511.09
2019-01-31T08:53:05.204Z,99515.44
2019-01-31T08:55:34.374Z,99516.09
2019-01-31T08:58:03.867Z,99514.35
2019-01-31T09:00:33.073Z,99511.59
2019-01-31T09:03:02.267Z,99505.80
2019-01-31T09:05:31.542Z,99505.53
2019-01-31T09:08:00.789Z,99506.41
2019-01-31T09:10:38.729Z,99502.27
2019-01-31T09:13:09.653Z,99497.03
2019-01-31T09:15:38.872Z,99493.97
2019-01-31T09:18:08.292Z,99493.41
2019-01-31T09:20:43.655Z,99496.30
2019-01-31T09:23:43.159Z,99490.65
2019-01-31T09:26:21.170Z,99493.91
2019-01-31T09:29:08.051Z,99492.47
2019-01-31T09:31:57.732Z,99494.25
2019-01-31T09:34:41.890Z,99497.23
2019-01-31T09:37:19.745Z,99492.86
2019-01-31T09:40:09.624Z,99495.84
2019-01-31T09:42:41.778Z,99495.23
2019-01-31T09:45:56.326Z,99495.00
2019-01-31T09:49:03.278Z,99497.90
2019-01-31T09:52:05.456Z,99496.66
2019-01-31T09:54:40.275Z,99499.41
2019-01-31T10:00:09.385Z,99500.83
2019-01-31T10:03:10.543Z,99498.73
2019-01-31T10:05:48.463Z,99497.80
2019-01-31T10:08:34.724Z,99496.19
2019-01-31T10:11:07.175Z,99496.23
2019-01-31T10:14:08.130Z,99497.67
2019-01-31T10:16:47.107Z,99491.45
2019-01-31T10:19:37.482Z,99493.45
2019-01-31T10:22:33.494Z,99489.78
2019-01-31T10:25:20.743Z,99496.03
2019-01-31T10:28:11.177Z,99494.91
2019-01-31T10:30:43.438Z,99483.26
2019-01-31T10:33:18.328Z,99488.28
2019-01-31T10:36:08.427Z,99490.88
2019-01-31T10:38:49.423Z,99483.56
2019-01-31T10:41:27.099Z,99478.98
2019-01-31T10:44:27.731Z,99484.75
2019-01-31T10:47:15.070Z,99486.06
2019-01-31T10:49:59.312Z,99484.46
2019-01-31T10:52:47.748Z,99484.50
2019-01-31T10:55:32.142Z,99489.45
2019-01-31T10:58:10.473Z,99487.09
2019-01-31T11:00:51.773Z,99483.10
2019-01-31T11:03:55.802Z,99486.24
2019-01-31T11:06:36.700Z,99488.06
2019-01-31T11:09:43.538Z,99478.34
2019-01-31T11:12:30.349Z,99475.11
2019-01-31T11:15:19.294Z,99480.43
2019-01-31T11:18:00.087Z,99480.06
2019-01-31T11:20:55.131Z,99479.02
2019-01-31T11:23:50.477Z,99482.83
2019-01-31T11:26:40.001Z,99478.38
2019-01-31T11:29:12.235Z,99481.16
2019-01-31T11:31:50.284Z,99474.31
2019-01-31T11:34:32.668Z,99477.15
2019-01-31T11:37:02.045Z,99474.73
2019-01-31T11:39:52.125Z,99477.80
2019-01-31T11:42:29.866Z,99482.52
2019-01-31T11:45:22.886Z,99474.99
2019-01-31T11:48:00.782Z,99476.27
2019-01-31T11:50:41.452Z,99479.05
2019-01-31T11:56:44.057Z,99478.53
2019-01-31T11:59:13.261Z,99487.66
2019-01-31T12:01:42.446Z,99483.06
2019-01-31T12:04:11.742Z,99482.11
2019-01-31T12:06:41.088Z,99481.78
2019-01-31T12:09:13.501Z,99483.61
2019-01-31T12:11:42.703Z,99478.61
2019-01-31T12:14:12.132Z,99474.80
2019-01-31T12:16:41.483Z,99477.96
2019-01-31T12:19:10.807Z,99488.78
2019-01-31T12:21:40.128Z,99484.65
2019-01-31T12:24:16.155Z,99480.23
2019-01-31T12:26:40.480Z,99482.72
2019-01-31T12:29:09.751Z,99483.62
2019-01-31T12:31:38.952Z,99478.11
2019-01-31T12:34:37.066Z,99478.26
2019-01-31T12:37:06.318Z,99475.79
2019-01-31T12:39:35.508Z,99479.60
2019-01-31T12:42:05.112Z,99471.23
2019-01-31T12:44:34.324Z,99476.63
2019-01-31T12:47:04.516Z,99474.80
2019-01-31T12:49:33.705Z,99476.16
2019-01-31T12:52:04.356Z,99476.91
2019-01-31T12:54:33.678Z,99475.70
2019-01-31T12:57:02.951Z,99480.94
2019-01-31T12:59:32.166Z,99485.22
2019-01-31T13:02:01.475Z,99479.16
2019-01-31T13:04:30.637Z,99473.70
2019-01-31T13:06:59.851Z,99476.63
2019-01-31T13:09:29.155Z,99477.55
2019-01-31T13:11:58.449Z,99474.94
2019-01-31T13:14:28.542Z,99475.86
2019-01-31T13:16:57.865Z,99468.08
2019-01-31T13:19:27.049Z,99471.21
2019-01-31T13:21:56.237Z,99467.28
2019-01-31T13:24:25.423Z,99466.30
2019-01-31T13:26:54.603Z,99470.68
2019-01-31T13:29:23.798Z,99464.86
2019-01-31T13:31:52.976Z,99464.71
2019-01-31T13:34:22.163Z,99464.83
2019-01-31T13:36:51.371Z,99463.53
2019-01-31T13:39:20.551Z,99464.08
2019-01-31T13:41:49.733Z,99468.31
2019-01-31T13:44:18.936Z,99462.56
2019-01-31T13:46:48.185Z,99464.05
2019-01-31T13:49:17.947Z,99458.64
2019-01-31T13:51:47.242Z,99468.94
2019-01-31T13:54:16.419Z,99462.01
2019-01-31T13:56:46.118Z,99464.95
2019-01-31T13:59:15.376Z,99461.73
2019-01-31T14:01:44.557Z,99459.22
2019-01-31T14:04:13.745Z,99452.33
2019-01-31T14:06:42.954Z,99453.06
2019-01-31T14:09:12.436Z,99456.59
2019-01-31T14:11:41.619Z,99454.60
2019-01-31T14:14:10.820Z,99443.60
2019-01-31T14:16:47.123Z,99449.84
2019-01-31T14:19:10.958Z,99442.46
2019-01-31T14:21:40.140Z,99441.95
2019-01-31T14:24:09.339Z,99441.88
2019-01-31T14:26:38.559Z,99436.19
2019-01-31T14:29:07.747Z,99435.28
2019-01-31T14:31:36.930Z,99434.34
2019-01-31T14:34:08.979Z,99434.09
2019-01-31T14:36:37.172Z,99420.98
2019-01-31T14:39:07.571Z,99421.98
2019-01-31T14:41:36.755Z,99422.80
2019-01-31T14:44:06.191Z,99416.14
2019-01-31T14:46:35.367Z,99416.61
2019-01-31T14:49:04.951Z,99411.19
2019-01-31T14:51:34.152Z,99416.26
2019-01-31T14:54:03.335Z,99413.78
2019-01-31T14:56:32.537Z,99411.84
2019-01-31T14:59:01.734Z,99410.58
2019-01-31T15:01:30.914Z,99414.21
2019-01-31T15:04:00.096Z,99413.94
2019-01-31T15:06:29.312Z,99408.52
2019-01-31T15:08:58.484Z,99413.28
2019-01-31T15:11:27.678Z,99414.48
2019-01-31T15:13:56.893Z,99417.53
2019-01-31T15:16:26.065Z,99413.00
2019-01-31T15:18:55.256Z,99410.45
2019-01-31T15:21:24.421Z,99401.51
2019-01-31T15:23:53.603Z,99401.51
2019-01-31T15:26:22.783Z,99405.33
2019-01-31T15:28:51.979Z,99400.54
2019-01-31T15:31:21.161Z,99390.73
2019-01-31T15:33:50.323Z,99390.11
2019-01-31T15:36:19.587Z,99388.92
2019-01-31T15:38:48.775Z,99392.88
2019-01-31T15:41:17.967Z,99385.77
2019-01-31T15:43:47.185Z,99383.95
2019-01-31T15:46:18.002Z,99389.02
2019-01-31T15:48:47.388Z,99391.03
2019-01-31T15:51:16.495Z,99388.32
2019-01-31T15:53:45.679Z,99383.37
2019-01-31T15:56:15.039Z,99378.23
2019-01-31T15:58:44.235Z,99374.82
2019-01-31T16:01:13.507Z,99369.98
2019-01-31T16:03:42.807Z,99366.34
2019-01-31T16:06:12.118Z,99373.30
2019-01-31T16:08:41.294Z,99350.98
2019-01-31T16:11:10.510Z,99342.71
2019-01-31T16:13:39.691Z,99332.66
2019-01-31T16:16:09.043Z,99330.26
2019-01-31T16:18:38.266Z,99332.23
2019-01-31T16:21:07.449Z,99324.30
2019-01-31T16:23:36.716Z,99321.55
2019-01-31T16:26:06.020Z,99324.03
2019-01-31T16:28:35.218Z,99316.95
2019-01-31T16:31:04.542Z,99326.57
2019-01-31T16:33:33.739Z,99315.05
2019-01-31T16:36:03.261Z,99308.75
2019-01-31T16:38:32.447Z,99306.98
2019-01-31T16:41:01.655Z,99298.73
2019-01-31T16:43:30.845Z,99296.03
2019-01-31T16:46:00.124Z,99294.83
2019-01-31T16:48:29.329Z,99300.87
2019-01-31T16:50:58.548Z,99294.38
2019-01-31T16:53:27.725Z,99299.47
2019-01-31T16:55:56.918Z,99293.87
2019-01-31T16:58:26.104Z,99299.89
2019-01-31T17:00:55.305Z,99299.60
2019-01-31T17:03:24.527Z,99302.88
2019-01-31T17:05:53.708Z,99304.19
2019-01-31T17:08:22.987Z,99297.41
2019-01-31T17:10:52.302Z,99292.42
2019-01-31T17:13:21.507Z,99291.00
2019-01-31T17:15:50.832Z,99289.42
2019-01-31T17:18:20.009Z,99292.63
2019-01-31T17:20:49.200Z,99281.88
2019-01-31T17:23:18.467Z,99284.67
2019-01-31T17:25:47.659Z,99287.48
2019-01-31T17:28:16.840Z,99284.59
2019-01-31T17:30:46.043Z,99282.50
2019-01-31T17:33:15.230Z,99288.03
2019-01-31T17:35:44.414Z,99283.58
2019-01-31T17:38:13.612Z,99293.52
2019-01-31T17:40:42.935Z,99288.63
2019-01-31T17:43:12.194Z,99287.78
2019-01-31T17:45:41.468Z,99289.07
2019-01-31T17:48:12.162Z,99288.42
2019-01-31T17:50:41.421Z,99281.43
2019-01-31T17:53:10.649Z,99285.91
2019-01-31T17:55:41.777Z,99286.09
2019-01-31T17:58:10.713Z,99291.73
2019-01-31T18:00:42.707Z,99287.02
2019-01-31T18:03:11.986Z,99284.67
2019-01-31T18:05:41.265Z,99288.47
2019-01-31T18:08:10.545Z,99282.01
2019-01-31T18:10:39.738Z,99288.22
2019-01-31T18:13:08.930Z,99292.20
2019-01-31T18:15:42.317Z,99280.95
2019-01-31T18:18:09.069Z,99288.53
2019-01-31T18:20:38.416Z,99274.33
2019-01-31T18:23:07.625Z,99278.55
2019-01-31T18:25:36.749Z,99278.77
2019-01-31T18:28:05.992Z,99270.82
2019-01-31T18:30:37.259Z,99282.22
2019-01-31T18:33:06.552Z,99275.69
2019-01-31T18:35:35.746Z,99272.49
2019-01-31T18:38:06.097Z,99279.59
2019-01-31T18:40:36.221Z,99282.15
2019-01-31T18:43:05.851Z,99279.38
2019-01-31T18:45:36.210Z,99279.27
2019-01-31T18:48:06.624Z,99286.19
2019-01-31T18:50:40.648Z,99281.21
2019-01-31T18:53:09.982Z,99280.67
2019-01-31T18:55:39.295Z,99283.11
2019-01-31T18:58:08.415Z,99272.44
2019-01-31T19:00:46.189Z,99273.75
2019-01-31T19:03:15.523Z,99265.37
2019-01-31T19:05:45.087Z,99249.67
2019-01-31T19:08:14.382Z,99247.33
2019-01-31T19:10:44.031Z,99235.65
2019-01-31T19:13:13.470Z,99228.42
2019-01-31T19:15:42.648Z,99218.09
2019-01-31T19:18:11.867Z,99217.09
2019-01-31T19:20:41.227Z,99223.74
2019-01-31T19:23:10.475Z,99222.41
2019-01-31T19:25:39.674Z,99206.30
2019-01-31T19:28:08.992Z,99204.27
2019-01-31T19:30:56.383Z,99197.81
2019-01-31T19:33:25.566Z,99205.85
2019-01-31T19:35:54.775Z,99190.73
2019-01-31T19:38:25.614Z,99193.98
2019-01-31T19:40:54.793Z,99197.30
2019-01-31T19:43:24.016Z,99196.38
2019-01-31T19:45:53.288Z,99203.02
2019-01-31T19:48:22.750Z,99183.88
2019-01-31T19:50:51.956Z,99182.00
2019-01-31T19:53:21.149Z,99181.70
2019-01-31T19:55:50.401Z,99180.73
2019-01-31T19:58:19.620Z,99175.52
2019-01-31T20:00:48.798Z,99179.89
2019-01-31T20:03:17.993Z,99172.63
2019-01-31T20:05:47.189Z,99171.39
2019-01-31T20:08:16.473Z,99168.77
2019-01-31T20:10:45.769Z,99176.33
2019-01-31T20:13:15.079Z,99163.59
2019-01-31T20:15:44.347Z,99157.13
2019-01-31T20:18:13.691Z,99158.41
2019-01-31T20:20:43.030Z,99157.52
2019-01-31T20:23:12.188Z,99156.41
2019-01-31T20:25:41.374Z,99159.45
2019-01-31T20:28:10.550Z,99158.41
2019-01-31T20:30:39.824Z,99149.70
2019-01-31T20:33:09.226Z,99162.77
2019-01-31T20:35:38.488Z,99152.22
2019-01-31T20:38:07.747Z,99137.41
2019-01-31T20:40:39.101Z,99134.70
2019-01-31T20:43:08.550Z,99145.59
2019-01-31T20:45:37.794Z,99138.00
2019-01-31T20:48:07.386Z,99138.77
2019-01-31T20:50:38.237Z,99129.22
2019-01-31T20:53:07.946Z,99118.29
2019-01-31T20:55:37.280Z,99107.69
2019-01-31T20:58:06.933Z,99102.83
2019-01-31T21:00:38.462Z,99105.71
2019-01-31T21:03:08.576Z,99101.84
2019-01-31T21:05:38.311Z,99093.50
2019-01-31T21:08:10.344Z,99097.49
2019-01-31T21:10:39.608Z,99086.47
2019-01-31T21:13:08.862Z,99093.16
2019-01-31T21:15:38.037Z,99084.30
2019-01-31T21:18:07.751Z,99069.00
2019-01-31T21:20:37.505Z,99056.87
2019-01-31T21:23:08.106Z,99040.17
2019-01-31T21:25:37.362Z,99037.50
2019-01-31T21:28:06.637Z,99030.22
2019-01-31T21:30:39.687Z,99027.75
2019-01-31T21:33:08.945Z,99026.02
2019-01-31T21:35:38.305Z,99004.05
2019-01-31T21:38:07.579Z,99013.00
2019-01-31T21:40:36.771Z,98997.94
2019-01-31T21:43:06.423Z,98997.05
2019-01-31T21:45:35.752Z,98992.35
2019-01-31T21:48:06.091Z,98991.72
2019-01-31T21:50:35.627Z,98994.34
2019-01-31T21:53:05.041Z,98996.17
2019-01-31T21:55:34.337Z,98996.00
2019-01-31T21:58:03.907Z,98988.97
2019-01-31T22:00:35.341Z,98984.64
2019-01-31T22:03:06.273Z,98979.77
2019-01-31T22:05:35.553Z,98974.73
2019-01-31T22:08:05.493Z,98968.41
2019-01-31T22:10:34.672Z,98958.70
2019-01-31T22:13:21.917Z,98948.09
2019-01-31T22:15:51.185Z,98937.16
2019-01-31T22:18:20.341Z,98931.52
2019-01-31T22:20:49.529Z,98928.98
2019-01-31T22:23:19.043Z,98935.45
2019-01-31T22:25:48.230Z,98936.16
2019-01-31T22:28:17.427Z,98939.40
2019-01-31T22:30:46.619Z,98936.59
2019-01-31T22:33:15.801Z,98937.48
2019-01-31T22:35:45.082Z,98938.95
2019-01-31T22:38:14.253Z,98943.22
2019-01-31T22:40:43.414Z,98939.88
2019-01-31T22:43:12.642Z,98930.97
2019-01-31T22:45:43.944Z,98931.06
2019-01-31T22:48:15.790Z,98932.80
2019-01-31T22:50:45.033Z,98918.75
2019-01-31T22:53:14.210Z,98913.98
2019-01-31T22:55:43.334Z,98923.26
2019-01-31T22:58:12.541Z,98910.11
2019-01-31T23:00:54.844Z,98913.98
2019-01-31T23:03:24.184Z,98909.60
2019-01-31T23:05:55.844Z,98901.15
2019-01-31T23:08:26.834Z,98905.05
2019-01-31T23:10:56.189Z,98897.72
2019-01-31T23:13:26.378Z,98898.91
2019-01-31T23:15:55.565Z,98898.10
2019-01-31T23:18:24.757Z,98896.84
2019-01-31T23:20:53.945Z,98880.22
2019-01-31T23:23:23.137Z,98882.23
2019-01-31T23:25:52.348Z,98887.48
2019-01-31T23:28:21.535Z,98875.42
2019-01-31T23:30:50.771Z,98872.80
2019-01-31T23:33:19.976Z,98873.03
2019-01-31T23:35:49.442Z,98869.27
2019-01-31T23:38:18.550Z,98860.58
2019-01-31T23:40:47.804Z,98854.00
2019-01-31T23:43:16.931Z,98852.50
2019-01-31T23:45:46.253Z,98852.50
2019-01-31T23:48:15.446Z,98838.78
2019-01-31T23:50:44.756Z,98837.98
2019-01-31T23:53:13.960Z,98844.89
2019-01-31T23:55:43.169Z,98834.79
2019-01-31T23:58:12.258Z,98832.91
